Hlavní strana
METAR-TAF:

METAR-TAF

Letiště :

Kristianstad, Švédsko

zeměpisná šířka: 55-55N, zeměpisná délka: 014-05E, výška: 23 m

Aktuální stav počasí

Zpráva byla vytvořena před 24 minutami, v 03:20 UTC
Západoseverozápadní vítr 6 kt
Teplota 4°C
Vlhkost vzduchu 87%
Tlak 1036 hPa
Viditelnost 10 km a více

METAR: ESMK 180320Z AUTO 29006KT 9999 BKN012/// 04/02 Q1036

Čas: 04:44 (03:44 UTC)


TAF: chybějící

Stav a předpovědi počasí z více než 4 000 letišť (zprávy METAR a TAF).

Červené a žluté tečky na mapě představují dostupné meteorologické stanice.

Když kurzor umístíte na tečku, zobrazí se název stanice.

Pak kliknutím zobrazíte stav a předpověď počasí.

Chcete-li změnit mapu, kliknutím na zelené tlačítko se znaménkem +mapu přiblížíte, kliknutím na zelené tlačítko se znaménkem – mapu oddálíte a kliknutím na zelené šipky přejdete na sousední mapy.


METAR-TAF: